sensor_id;sensor_type;location;lat;lon;timestamp;pressure;altitude;pressure_sealevel;temperature;humidity
5755;BME280;2902;42.130;24.732;2023-04-26T00:00:12;98526.25;;;13.67;100.00
5755;BME280;2902;42.130;24.732;2023-04-26T00:02:39;98527.72;;;13.75;100.00
5755;BME280;2902;42.130;24.732;2023-04-26T00:05:06;98517.69;;;13.82;100.00
5755;BME280;2902;42.130;24.732;2023-04-26T00:07:33;98526.28;;;13.84;100.00
5755;BME280;2902;42.130;24.732;2023-04-26T00:10:02;98517.22;;;13.85;100.00
5755;BME280;2902;42.130;24.732;2023-04-26T00:12:28;98519.16;;;13.89;100.00
5755;BME280;2902;42.130;24.732;2023-04-26T00:14:57;98497.13;;;13.66;100.00
5755;BME280;2902;42.130;24.732;2023-04-26T00:17:23;98510.00;;;13.69;100.00
5755;BME280;2902;42.130;24.732;2023-04-26T00:19:50;98501.19;;;13.68;100.00
5755;BME280;2902;42.130;24.732;2023-04-26T00:22:17;98503.28;;;13.66;100.00
5755;BME280;2902;42.130;24.732;2023-04-26T00:24:43;98504.00;;;13.62;100.00
5755;BME280;2902;42.130;24.732;2023-04-26T00:27:10;98496.41;;;13.70;100.00
5755;BME280;2902;42.130;24.732;2023-04-26T00:29:37;98494.84;;;13.58;100.00
5755;BME280;2902;42.130;24.732;2023-04-26T00:32:05;98491.47;;;13.62;100.00
5755;BME280;2902;42.130;24.732;2023-04-26T00:34:32;98495.81;;;13.52;100.00
5755;BME280;2902;42.130;24.732;2023-04-26T00:36:59;98482.88;;;13.60;100.00
5755;BME280;2902;42.130;24.732;2023-04-26T00:39:26;98478.22;;;13.67;100.00
5755;BME280;2902;42.130;24.732;2023-04-26T00:41:53;98475.16;;;13.75;100.00
5755;BME280;2902;42.130;24.732;2023-04-26T00:44:19;98463.66;;;13.75;100.00
5755;BME280;2902;42.130;24.732;2023-04-26T00:46:46;98456.88;;;13.67;100.00
5755;BME280;2902;42.130;24.732;2023-04-26T00:49:15;98464.47;;;13.75;100.00
5755;BME280;2902;42.130;24.732;2023-04-26T00:51:43;98463.81;;;13.68;100.00
5755;BME280;2902;42.130;24.732;2023-04-26T00:54:11;98458.47;;;13.68;100.00
5755;BME280;2902;42.130;24.732;2023-04-26T00:56:38;98456.88;;;13.67;100.00
5755;BME280;2902;42.130;24.732;2023-04-26T00:59:05;98452.19;;;13.74;100.00
5755;BME280;2902;42.130;24.732;2023-04-26T01:01:31;98458.56;;;13.57;100.00
5755;BME280;2902;42.130;24.732;2023-04-26T01:03:59;98451.50;;;13.51;100.00
5755;BME280;2902;42.130;24.732;2023-04-26T01:06:32;98450.09;;;13.48;100.00
5755;BME280;2902;42.130;24.732;2023-04-26T01:08:59;98447.56;;;13.25;100.00
5755;BME280;2902;42.130;24.732;2023-04-26T01:11:27;98451.63;;;13.28;100.00
5755;BME280;2902;42.130;24.732;2023-04-26T01:13:55;98452.59;;;13.38;99.49
5755;BME280;2902;42.130;24.732;2023-04-26T01:16:22;98453.75;;;13.42;99.23
5755;BME280;2902;42.130;24.732;2023-04-26T01:18:50;98450.84;;;13.44;99.19
5755;BME280;2902;42.130;24.732;2023-04-26T01:21:18;98453.66;;;13.37;98.91
5755;BME280;2902;42.130;24.732;2023-04-26T01:23:47;98450.66;;;13.34;98.20
5755;BME280;2902;42.130;24.732;2023-04-26T01:26:14;98456.81;;;13.34;98.23
5755;BME280;2902;42.130;24.732;2023-04-26T01:28:41;98443.16;;;13.19;97.15
5755;BME280;2902;42.130;24.732;2023-04-26T01:31:08;98451.03;;;13.26;97.06
5755;BME280;2902;42.130;24.732;2023-04-26T01:33:34;98441.28;;;13.31;96.59
5755;BME280;2902;42.130;24.732;2023-04-26T01:36:01;98440.59;;;13.24;95.99
5755;BME280;2902;42.130;24.732;2023-04-26T01:38:28;98438.38;;;13.33;95.61
5755;BME280;2902;42.130;24.732;2023-04-26T01:40:56;98444.53;;;13.33;95.06
5755;BME280;2902;42.130;24.732;2023-04-26T01:43:22;98443.38;;;13.29;94.77
5755;BME280;2902;42.130;24.732;2023-04-26T01:45:49;98434.78;;;13.27;94.81
5755;BME280;2902;42.130;24.732;2023-04-26T01:48:16;98431.06;;;13.28;94.86
5755;BME280;2902;42.130;24.732;2023-04-26T01:50:42;98424.94;;;13.28;94.60
5755;BME280;2902;42.130;24.732;2023-04-26T01:53:09;98430.44;;;13.38;95.25
5755;BME280;2902;42.130;24.732;2023-04-26T01:55:36;98433.47;;;13.41;94.91
5755;BME280;2902;42.130;24.732;2023-04-26T01:58:04;98442.94;;;13.49;94.71
5755;BME280;2902;42.130;24.732;2023-04-26T02:00:32;98431.41;;;13.60;94.24
5755;BME280;2902;42.130;24.732;2023-04-26T02:02:59;98431.16;;;13.61;92.97
5755;BME280;2902;42.130;24.732;2023-04-26T02:05:25;98443.44;;;13.62;91.17
5755;BME280;2902;42.130;24.732;2023-04-26T02:07:52;98443.75;;;13.49;90.90
5755;BME280;2902;42.130;24.732;2023-04-26T02:10:19;98440.97;;;13.44;91.13
5755;BME280;2902;42.130;24.732;2023-04-26T02:12:45;98443.09;;;13.59;91.14
5755;BME280;2902;42.130;24.732;2023-04-26T02:15:13;98442.53;;;13.57;91.34
5755;BME280;2902;42.130;24.732;2023-04-26T02:17:41;98445.75;;;13.59;91.31
5755;BME280;2902;42.130;24.732;2023-04-26T02:20:08;98446.81;;;13.58;91.36
5755;BME280;2902;42.130;24.732;2023-04-26T02:22:35;98451.50;;;13.51;91.48
5755;BME280;2902;42.130;24.732;2023-04-26T02:25:02;98456.03;;;13.50;92.02
5755;BME280;2902;42.130;24.732;2023-04-26T02:27:29;98455.81;;;13.52;91.77
5755;BME280;2902;42.130;24.732;2023-04-26T02:29:57;98452.22;;;13.46;91.47
5755;BME280;2902;42.130;24.732;2023-04-26T02:32:25;98454.75;;;13.53;91.85
5755;BME280;2902;42.130;24.732;2023-04-26T02:34:52;98449.09;;;13.49;92.38
5755;BME280;2902;42.130;24.732;2023-04-26T02:37:20;98445.84;;;13.47;92.40
5755;BME280;2902;42.130;24.732;2023-04-26T02:39:48;98444.22;;;13.46;93.53
5755;BME280;2902;42.130;24.732;2023-04-26T02:42:15;98450.03;;;13.43;93.30
5755;BME280;2902;42.130;24.732;2023-04-26T02:44:42;98450.19;;;13.37;94.03
5755;BME280;2902;42.130;24.732;2023-04-26T02:47:09;98456.59;;;13.24;93.97
5755;BME280;2902;42.130;24.732;2023-04-26T02:49:37;98445.75;;;13.14;94.95
5755;BME280;2902;42.130;24.732;2023-04-26T02:52:04;98459.53;;;13.23;94.51
5755;BME280;2902;42.130;24.732;2023-04-26T02:54:31;98458.03;;;13.15;95.02
5755;BME280;2902;42.130;24.732;2023-04-26T02:56:57;98459.44;;;13.06;94.76
5755;BME280;2902;42.130;24.732;2023-04-26T02:59:25;98464.66;;;13.13;94.45
5755;BME280;2902;42.130;24.732;2023-04-26T03:01:52;98459.66;;;13.16;94.63
5755;BME280;2902;42.130;24.732;2023-04-26T03:04:18;98458.00;;;13.27;96.06
5755;BME280;2902;42.130;24.732;2023-04-26T03:06:46;98452.75;;;13.32;96.52
5755;BME280;2902;42.130;24.732;2023-04-26T03:09:13;98443.94;;;13.31;96.65
5755;BME280;2902;42.130;24.732;2023-04-26T03:11:40;98438.22;;;13.39;96.73
5755;BME280;2902;42.130;24.732;2023-04-26T03:14:06;98436.78;;;13.48;96.44
5755;BME280;2902;42.130;24.732;2023-04-26T03:16:39;98430.50;;;13.54;95.95
5755;BME280;2902;42.130;24.732;2023-04-26T03:19:07;98440.03;;;13.50;95.50
5755;BME280;2902;42.130;24.732;2023-04-26T03:21:34;98437.34;;;13.50;95.24
5755;BME280;2902;42.130;24.732;2023-04-26T03:24:02;98439.06;;;13.56;95.10
5755;BME280;2902;42.130;24.732;2023-04-26T03:26:29;98435.84;;;13.54;94.80
5755;BME280;2902;42.130;24.732;2023-04-26T03:28:56;98444.78;;;13.48;95.03
5755;BME280;2902;42.130;24.732;2023-04-26T03:31:22;98439.28;;;13.38;96.00
5755;BME280;2902;42.130;24.732;2023-04-26T03:33:50;98447.81;;;13.40;95.55
5755;BME280;2902;42.130;24.732;2023-04-26T03:36:16;98447.28;;;13.38;96.05
5755;BME280;2902;42.130;24.732;2023-04-26T03:38:43;98447.81;;;13.24;95.52
5755;BME280;2902;42.130;24.732;2023-04-26T03:41:12;98460.00;;;13.20;95.67
5755;BME280;2902;42.130;24.732;2023-04-26T03:43:38;98467.00;;;13.09;95.66
5755;BME280;2902;42.130;24.732;2023-04-26T03:46:05;98473.38;;;13.08;96.15
5755;BME280;2902;42.130;24.732;2023-04-26T03:48:32;98467.81;;;12.98;95.88
5755;BME280;2902;42.130;24.732;2023-04-26T03:50:58;98474.75;;;12.99;96.10
5755;BME280;2902;42.130;24.732;2023-04-26T03:53:25;98475.69;;;12.93;96.40
5755;BME280;2902;42.130;24.732;2023-04-26T03:55:52;98483.47;;;12.83;96.09
5755;BME280;2902;42.130;24.732;2023-04-26T03:58:20;98478.03;;;12.78;96.27
5755;BME280;2902;42.130;24.732;2023-04-26T04:00:46;98486.25;;;12.77;96.95
5755;BME280;2902;42.130;24.732;2023-04-26T04:03:13;98486.63;;;12.80;96.89
5755;BME280;2902;42.130;24.732;2023-04-26T04:05:40;98482.44;;;12.73;97.29
5755;BME280;2902;42.130;24.732;2023-04-26T04:08:07;98481.28;;;12.69;97.06
5755;BME280;2902;42.130;24.732;2023-04-26T04:10:33;98481.19;;;12.75;97.04
5755;BME280;2902;42.130;24.732;2023-04-26T04:13:01;98479.53;;;12.97;98.11
5755;BME280;2902;42.130;24.732;2023-04-26T04:15:29;98473.34;;;13.36;94.89
5755;BME280;2902;42.130;24.732;2023-04-26T04:17:56;98483.75;;;13.49;92.95
5755;BME280;2902;42.130;24.732;2023-04-26T04:20:22;98480.97;;;13.44;92.77
5755;BME280;2902;42.130;24.732;2023-04-26T04:22:49;98480.44;;;13.42;93.01
5755;BME280;2902;42.130;24.732;2023-04-26T04:25:16;98477.84;;;13.47;93.29
5755;BME280;2902;42.130;24.732;2023-04-26T04:27:45;98479.81;;;13.68;93.45
5755;BME280;2902;42.130;24.732;2023-04-26T04:30:12;98478.09;;;13.90;93.13
5755;BME280;2902;42.130;24.732;2023-04-26T04:32:40;98483.09;;;14.03;91.56
5755;BME280;2902;42.130;24.732;2023-04-26T04:35:09;98488.59;;;14.13;90.53
5755;BME280;2902;42.130;24.732;2023-04-26T04:37:36;98478.56;;;14.20;90.34
5755;BME280;2902;42.130;24.732;2023-04-26T04:40:04;98491.69;;;14.55;89.75
5755;BME280;2902;42.130;24.732;2023-04-26T04:42:30;98489.28;;;14.96;87.32
5755;BME280;2902;42.130;24.732;2023-04-26T04:44:57;98494.19;;;15.42;86.84
5755;BME280;2902;42.130;24.732;2023-04-26T04:47:24;98492.81;;;16.25;83.20
5755;BME280;2902;42.130;24.732;2023-04-26T04:49:52;98499.59;;;17.30;85.61
5755;BME280;2902;42.130;24.732;2023-04-26T04:52:19;98502.97;;;17.67;77.75
5755;BME280;2902;42.130;24.732;2023-04-26T04:54:46;98503.84;;;18.18;80.69
5755;BME280;2902;42.130;24.732;2023-04-26T04:57:12;98511.31;;;18.96;77.16
5755;BME280;2902;42.130;24.732;2023-04-26T04:59:40;98512.16;;;20.03;73.07
5755;BME280;2902;42.130;24.732;2023-04-26T05:02:07;98526.28;;;20.86;69.21
5755;BME280;2902;42.130;24.732;2023-04-26T05:04:34;98530.38;;;21.96;61.34
5755;BME280;2902;42.130;24.732;2023-04-26T05:07:02;98534.56;;;23.03;58.67
5755;BME280;2902;42.130;24.732;2023-04-26T05:09:30;98533.31;;;24.04;54.03
5755;BME280;2902;42.130;24.732;2023-04-26T05:11:56;98531.72;;;24.60;50.25
5755;BME280;2902;42.130;24.732;2023-04-26T05:14:23;98529.28;;;25.12;50.56
5755;BME280;2902;42.130;24.732;2023-04-26T05:16:50;98527.06;;;25.14;46.89
5755;BME280;2902;42.130;24.732;2023-04-26T05:19:16;98526.63;;;24.67;46.86
5755;BME280;2902;42.130;24.732;2023-04-26T05:21:43;98503.97;;;24.28;49.75
5755;BME280;2902;42.130;24.732;2023-04-26T05:24:11;98499.44;;;23.52;50.43
5755;BME280;2902;42.130;24.732;2023-04-26T05:26:38;98504.75;;;23.57;52.34
5755;BME280;2902;42.130;24.732;2023-04-26T05:29:05;98506.38;;;23.58;53.52
5755;BME280;2902;42.130;24.732;2023-04-26T05:31:31;98506.88;;;23.60;50.89
5755;BME280;2902;42.130;24.732;2023-04-26T05:33:58;98500.31;;;23.75;54.10
5755;BME280;2902;42.130;24.732;2023-04-26T05:36:25;98501.81;;;24.38;52.95
5755;BME280;2902;42.130;24.732;2023-04-26T05:38:52;98505.44;;;24.78;50.90
5755;BME280;2902;42.130;24.732;2023-04-26T05:41:20;98502.09;;;24.28;50.65
5755;BME280;2902;42.130;24.732;2023-04-26T05:43:47;98512.88;;;23.71;50.26
5755;BME280;2902;42.130;24.732;2023-04-26T05:46:13;98507.13;;;23.23;49.67
5755;BME280;2902;42.130;24.732;2023-04-26T05:48:40;98505.59;;;22.58;50.89
5755;BME280;2902;42.130;24.732;2023-04-26T05:51:07;98501.34;;;22.84;50.92
5755;BME280;2902;42.130;24.732;2023-04-26T05:53:34;98504.44;;;22.91;50.54
5755;BME280;2902;42.130;24.732;2023-04-26T05:56:00;98505.47;;;22.95;52.68
5755;BME280;2902;42.130;24.732;2023-04-26T05:58:28;98510.47;;;22.75;49.59
5755;BME280;2902;42.130;24.732;2023-04-26T06:00:55;98522.56;;;22.45;49.97
5755;BME280;2902;42.130;24.732;2023-04-26T06:03:22;98507.34;;;22.17;52.14
5755;BME280;2902;42.130;24.732;2023-04-26T06:05:49;98508.44;;;22.16;50.69
5755;BME280;2902;42.130;24.732;2023-04-26T06:08:16;98512.09;;;22.25;50.50
5755;BME280;2902;42.130;24.732;2023-04-26T06:10:43;98504.97;;;22.29;54.19
5755;BME280;2902;42.130;24.732;2023-04-26T06:13:11;98502.06;;;23.03;52.14
5755;BME280;2902;42.130;24.732;2023-04-26T06:15:39;98512.13;;;24.06;48.80
5755;BME280;2902;42.130;24.732;2023-04-26T06:18:06;98506.53;;;24.24;44.74
5755;BME280;2902;42.130;24.732;2023-04-26T06:20:33;98513.66;;;24.42;46.02
5755;BME280;2902;42.130;24.732;2023-04-26T06:23:00;98510.34;;;24.45;45.82
5755;BME280;2902;42.130;24.732;2023-04-26T06:25:27;98520.09;;;24.24;44.86
5755;BME280;2902;42.130;24.732;2023-04-26T06:27:53;98512.63;;;23.94;46.23
5755;BME280;2902;42.130;24.732;2023-04-26T06:30:20;98512.03;;;23.97;47.15
5755;BME280;2902;42.130;24.732;2023-04-26T06:32:48;98515.03;;;24.31;45.26
5755;BME280;2902;42.130;24.732;2023-04-26T06:35:15;98513.53;;;24.25;44.78
5755;BME280;2902;42.130;24.732;2023-04-26T06:37:41;98512.28;;;23.60;44.41
5755;BME280;2902;42.130;24.732;2023-04-26T06:40:09;98511.81;;;23.58;46.66
5755;BME280;2902;42.130;24.732;2023-04-26T06:42:38;98518.44;;;23.52;44.49
5755;BME280;2902;42.130;24.732;2023-04-26T06:45:05;98501.09;;;23.26;44.98
5755;BME280;2902;42.130;24.732;2023-04-26T06:47:32;98515.50;;;23.08;45.46
5755;BME280;2902;42.130;24.732;2023-04-26T06:50:02;98508.69;;;23.11;47.54
5755;BME280;2902;42.130;24.732;2023-04-26T06:52:29;98510.31;;;23.39;47.01
5755;BME280;2902;42.130;24.732;2023-04-26T06:54:56;98508.78;;;23.19;45.99
5755;BME280;2902;42.130;24.732;2023-04-26T06:57:22;98512.00;;;23.48;47.04
5755;BME280;2902;42.130;24.732;2023-04-26T06:59:50;98512.59;;;23.59;46.38
5755;BME280;2902;42.130;24.732;2023-04-26T07:02:17;98512.41;;;23.55;46.85
5755;BME280;2902;42.130;24.732;2023-04-26T07:04:43;98508.88;;;23.68;47.10
5755;BME280;2902;42.130;24.732;2023-04-26T07:07:12;98511.56;;;23.95;47.47
5755;BME280;2902;42.130;24.732;2023-04-26T07:09:40;98520.91;;;23.76;45.68
5755;BME280;2902;42.130;24.732;2023-04-26T07:12:10;98519.31;;;23.61;47.33
5755;BME280;2902;42.130;24.732;2023-04-26T07:14:37;98509.88;;;23.59;49.82
5755;BME280;2902;42.130;24.732;2023-04-26T07:17:05;98509.56;;;23.74;45.96
5755;BME280;2902;42.130;24.732;2023-04-26T07:19:32;98515.53;;;23.62;50.48
5755;BME280;2902;42.130;24.732;2023-04-26T07:21:59;98524.56;;;23.58;46.15
5755;BME280;2902;42.130;24.732;2023-04-26T07:24:27;98527.84;;;23.95;45.12
5755;BME280;2902;42.130;24.732;2023-04-26T07:26:54;98525.25;;;24.12;46.95
5755;BME280;2902;42.130;24.732;2023-04-26T07:29:20;98525.00;;;24.22;46.59
5755;BME280;2902;42.130;24.732;2023-04-26T07:31:47;98521.28;;;23.96;43.91
5755;BME280;2902;42.130;24.732;2023-04-26T07:34:14;98526.41;;;23.84;43.85
5755;BME280;2902;42.130;24.732;2023-04-26T07:36:41;98522.75;;;24.02;46.34
5755;BME280;2902;42.130;24.732;2023-04-26T07:39:08;98529.13;;;23.84;43.72
5755;BME280;2902;42.130;24.732;2023-04-26T07:41:37;98533.88;;;23.92;42.85
5755;BME280;2902;42.130;24.732;2023-04-26T07:44:04;98516.53;;;23.66;44.25
5755;BME280;2902;42.130;24.732;2023-04-26T07:46:31;98528.97;;;23.67;44.21
5755;BME280;2902;42.130;24.732;2023-04-26T07:48:58;98539.81;;;23.67;43.57
5755;BME280;2902;42.130;24.732;2023-04-26T07:51:25;98541.59;;;23.18;44.07
5755;BME280;2902;42.130;24.732;2023-04-26T07:53:52;98529.88;;;22.13;46.99
5755;BME280;2902;42.130;24.732;2023-04-26T07:56:20;98522.88;;;21.70;48.38
5755;BME280;2902;42.130;24.732;2023-04-26T07:58:49;98523.03;;;21.60;50.60
5755;BME280;2902;42.130;24.732;2023-04-26T08:01:16;98522.09;;;21.69;50.77
5755;BME280;2902;42.130;24.732;2023-04-26T08:03:43;98522.34;;;22.10;51.35
5755;BME280;2902;42.130;24.732;2023-04-26T08:06:10;98522.75;;;22.35;48.45
5755;BME280;2902;42.130;24.732;2023-04-26T08:08:36;98525.66;;;22.39;47.04
5755;BME280;2902;42.130;24.732;2023-04-26T08:11:08;98515.97;;;22.70;47.96
5755;BME280;2902;42.130;24.732;2023-04-26T08:13:35;98525.75;;;23.11;45.79
5755;BME280;2902;42.130;24.732;2023-04-26T08:16:04;98518.13;;;23.67;44.06
5755;BME280;2902;42.130;24.732;2023-04-26T08:18:31;98508.38;;;24.37;44.68
5755;BME280;2902;42.130;24.732;2023-04-26T08:20:57;98524.56;;;24.07;41.98
5755;BME280;2902;42.130;24.732;2023-04-26T08:23:24;98514.84;;;24.06;44.05
5755;BME280;2902;42.130;24.732;2023-04-26T08:25:51;98508.16;;;24.12;41.27
5755;BME280;2902;42.130;24.732;2023-04-26T08:28:18;98524.59;;;23.80;40.56
5755;BME280;2902;42.130;24.732;2023-04-26T08:30:44;98521.13;;;23.52;41.15
5755;BME280;2902;42.130;24.732;2023-04-26T08:33:12;98508.28;;;23.44;43.63
5755;BME280;2902;42.130;24.732;2023-04-26T08:35:39;98506.28;;;23.63;41.34
5755;BME280;2902;42.130;24.732;2023-04-26T08:38:06;98512.91;;;23.57;43.05
5755;BME280;2902;42.130;24.732;2023-04-26T08:40:33;98509.50;;;23.52;41.57
5755;BME280;2902;42.130;24.732;2023-04-26T08:42:59;98504.84;;;23.66;41.41
5755;BME280;2902;42.130;24.732;2023-04-26T08:45:26;98503.25;;;23.78;42.61
5755;BME280;2902;42.130;24.732;2023-04-26T08:47:56;98502.13;;;23.79;41.39
5755;BME280;2902;42.130;24.732;2023-04-26T08:50:27;98507.88;;;23.64;41.41
5755;BME280;2902;42.130;24.732;2023-04-26T08:52:55;98504.47;;;23.18;40.60
5755;BME280;2902;42.130;24.732;2023-04-26T08:55:22;98491.31;;;22.98;47.01
5755;BME280;2902;42.130;24.732;2023-04-26T08:57:50;98497.28;;;23.27;43.71
5755;BME280;2902;42.130;24.732;2023-04-26T09:00:17;98486.78;;;23.61;44.09
5755;BME280;2902;42.130;24.732;2023-04-26T09:02:46;98498.44;;;24.11;40.94
5755;BME280;2902;42.130;24.732;2023-04-26T09:05:13;98497.38;;;23.85;37.80
5755;BME280;2902;42.130;24.732;2023-04-26T09:07:43;98489.56;;;23.83;37.57
5755;BME280;2902;42.130;24.732;2023-04-26T09:10:10;98489.22;;;23.98;40.63
5755;BME280;2902;42.130;24.732;2023-04-26T09:12:38;98483.59;;;23.59;38.04
5755;BME280;2902;42.130;24.732;2023-04-26T09:15:06;98490.03;;;23.85;39.21
5755;BME280;2902;42.130;24.732;2023-04-26T09:17:34;98490.75;;;23.28;37.33
5755;BME280;2902;42.130;24.732;2023-04-26T09:22:44;98481.94;;;23.72;39.21
5755;BME280;2902;42.130;24.732;2023-04-26T09:25:12;98478.59;;;23.88;42.06
5755;BME280;2902;42.130;24.732;2023-04-26T09:27:40;98490.56;;;23.87;38.32
5755;BME280;2902;42.130;24.732;2023-04-26T09:30:09;98478.09;;;23.86;38.88
5755;BME280;2902;42.130;24.732;2023-04-26T09:32:47;98464.31;;;24.18;40.32
5755;BME280;2902;42.130;24.732;2023-04-26T09:35:24;98474.31;;;24.31;39.59
5755;BME280;2902;42.130;24.732;2023-04-26T09:37:53;98484.13;;;23.83;39.88
5755;BME280;2902;42.130;24.732;2023-04-26T09:40:21;98477.72;;;23.79;42.45
5755;BME280;2902;42.130;24.732;2023-04-26T09:42:59;98477.09;;;23.82;41.44
5755;BME280;2902;42.130;24.732;2023-04-26T09:45:27;98468.69;;;23.70;41.74
5755;BME280;2902;42.130;24.732;2023-04-26T09:47:54;98474.44;;;24.04;40.51
5755;BME280;2902;42.130;24.732;2023-04-26T09:50:29;98472.28;;;23.79;39.68
5755;BME280;2902;42.130;24.732;2023-04-26T09:52:58;98463.06;;;23.67;42.17
5755;BME280;2902;42.130;24.732;2023-04-26T09:55:26;98464.75;;;24.12;42.36
5755;BME280;2902;42.130;24.732;2023-04-26T09:57:54;98457.50;;;24.51;39.69
5755;BME280;2902;42.130;24.732;2023-04-26T10:00:21;98458.88;;;24.62;39.75
5755;BME280;2902;42.130;24.732;2023-04-26T10:02:51;98457.75;;;24.63;40.30
5755;BME280;2902;42.130;24.732;2023-04-26T10:05:18;98446.41;;;24.61;39.20
5755;BME280;2902;42.130;24.732;2023-04-26T10:07:46;98450.34;;;24.86;39.29
5755;BME280;2902;42.130;24.732;2023-04-26T10:10:15;98441.69;;;24.75;38.06
5755;BME280;2902;42.130;24.732;2023-04-26T10:12:42;98428.59;;;24.25;39.35
5755;BME280;2902;42.130;24.732;2023-04-26T10:15:10;98448.25;;;24.52;37.50
5755;BME280;2902;42.130;24.732;2023-04-26T10:17:37;98440.78;;;24.27;38.35
5755;BME280;2902;42.130;24.732;2023-04-26T10:20:09;98440.50;;;24.37;39.54
5755;BME280;2902;42.130;24.732;2023-04-26T10:22:43;98443.47;;;24.27;37.26
5755;BME280;2902;42.130;24.732;2023-04-26T10:25:10;98443.44;;;23.48;37.76
5755;BME280;2902;42.130;24.732;2023-04-26T10:27:50;98437.03;;;23.03;41.27
5755;BME280;2902;42.130;24.732;2023-04-26T10:30:19;98437.84;;;22.90;40.85
5755;BME280;2902;42.130;24.732;2023-04-26T10:33:11;98434.13;;;22.27;40.39
5755;BME280;2902;42.130;24.732;2023-04-26T10:35:58;98445.97;;;21.99;41.55
5755;BME280;2902;42.130;24.732;2023-04-26T10:38:25;98428.06;;;21.66;42.81
5755;BME280;2902;42.130;24.732;2023-04-26T10:40:52;98434.38;;;21.01;44.05
5755;BME280;2902;42.130;24.732;2023-04-26T10:43:27;98428.53;;;20.42;47.60
5755;BME280;2902;42.130;24.732;2023-04-26T10:45:55;98421.69;;;20.21;49.30
5755;BME280;2902;42.130;24.732;2023-04-26T10:48:28;98428.13;;;19.91;48.41
5755;BME280;2902;42.130;24.732;2023-04-26T10:51:07;98430.84;;;19.86;48.94
5755;BME280;2902;42.130;24.732;2023-04-26T10:53:57;98420.38;;;19.46;51.23
5755;BME280;2902;42.130;24.732;2023-04-26T10:56:49;98420.16;;;19.38;52.70
5755;BME280;2902;42.130;24.732;2023-04-26T10:59:20;98414.28;;;19.26;51.83
5755;BME280;2902;42.130;24.732;2023-04-26T11:01:47;98422.38;;;19.26;51.07
5755;BME280;2902;42.130;24.732;2023-04-26T11:04:14;98432.75;;;18.84;50.72
5755;BME280;2902;42.130;24.732;2023-04-26T11:06:48;98423.63;;;18.80;51.58
5755;BME280;2902;42.130;24.732;2023-04-26T11:09:35;98431.75;;;18.70;52.50
5755;BME280;2902;42.130;24.732;2023-04-26T11:12:04;98420.94;;;18.80;53.34
5755;BME280;2902;42.130;24.732;2023-04-26T11:14:33;98418.28;;;18.65;53.86
5755;BME280;2902;42.130;24.732;2023-04-26T11:17:02;98417.91;;;18.91;53.91
5755;BME280;2902;42.130;24.732;2023-04-26T11:19:30;98421.69;;;18.90;54.60
5755;BME280;2902;42.130;24.732;2023-04-26T11:21:57;98419.88;;;18.76;53.84
5755;BME280;2902;42.130;24.732;2023-04-26T11:24:24;98427.91;;;18.81;53.87
5755;BME280;2902;42.130;24.732;2023-04-26T11:26:51;98432.81;;;18.74;53.46
5755;BME280;2902;42.130;24.732;2023-04-26T11:29:18;98425.88;;;18.58;53.37
5755;BME280;2902;42.130;24.732;2023-04-26T11:31:51;98431.25;;;18.58;54.01
5755;BME280;2902;42.130;24.732;2023-04-26T11:34:20;98434.06;;;18.96;56.50
5755;BME280;2902;42.130;24.732;2023-04-26T11:36:50;98429.53;;;19.45;54.25
5755;BME280;2902;42.130;24.732;2023-04-26T11:39:19;98434.16;;;19.35;50.01
5755;BME280;2902;42.130;24.732;2023-04-26T11:41:47;98435.59;;;19.17;50.32
5755;BME280;2902;42.130;24.732;2023-04-26T11:44:17;98437.75;;;19.15;49.67
5755;BME280;2902;42.130;24.732;2023-04-26T11:46:45;98440.97;;;19.12;49.20
5755;BME280;2902;42.130;24.732;2023-04-26T11:49:13;98444.44;;;19.18;49.09
5755;BME280;2902;42.130;24.732;2023-04-26T11:51:40;98446.59;;;19.26;49.75
5755;BME280;2902;42.130;24.732;2023-04-26T11:54:07;98460.06;;;19.26;49.68
5755;BME280;2902;42.130;24.732;2023-04-26T11:56:34;98462.25;;;19.19;50.56
5755;BME280;2902;42.130;24.732;2023-04-26T11:59:01;98463.03;;;19.24;50.32
5755;BME280;2902;42.130;24.732;2023-04-26T12:01:28;98460.09;;;19.16;50.48
5755;BME280;2902;42.130;24.732;2023-04-26T12:03:56;98465.44;;;19.21;51.06
5755;BME280;2902;42.130;24.732;2023-04-26T12:06:39;98472.75;;;19.15;50.73
5755;BME280;2902;42.130;24.732;2023-04-26T12:09:07;98472.97;;;19.29;51.62
5755;BME280;2902;42.130;24.732;2023-04-26T12:11:35;98464.38;;;19.22;51.53
5755;BME280;2902;42.130;24.732;2023-04-26T12:14:02;98460.38;;;19.14;50.67
5755;BME280;2902;42.130;24.732;2023-04-26T12:16:29;98455.41;;;18.78;50.53
5755;BME280;2902;42.130;24.732;2023-04-26T12:18:55;98463.97;;;18.85;50.62
5755;BME280;2902;42.130;24.732;2023-04-26T12:21:23;98460.19;;;18.91;50.20
5755;BME280;2902;42.130;24.732;2023-04-26T12:23:51;98452.72;;;18.68;50.54
5755;BME280;2902;42.130;24.732;2023-04-26T12:26:18;98448.44;;;18.67;49.76
5755;BME280;2902;42.130;24.732;2023-04-26T12:28:44;98458.59;;;18.85;49.80
5755;BME280;2902;42.130;24.732;2023-04-26T12:31:11;98468.72;;;19.13;49.29
5755;BME280;2902;42.130;24.732;2023-04-26T12:33:38;98472.19;;;19.18;47.88
5755;BME280;2902;42.130;24.732;2023-04-26T12:36:06;98456.66;;;19.59;49.97
5755;BME280;2902;42.130;24.732;2023-04-26T12:38:33;98461.81;;;19.94;53.23
5755;BME280;2902;42.130;24.732;2023-04-26T12:41:02;98456.84;;;20.11;54.20
5755;BME280;2902;42.130;24.732;2023-04-26T12:43:29;98452.25;;;20.06;54.33
5755;BME280;2902;42.130;24.732;2023-04-26T12:45:55;98452.41;;;19.86;53.15
5755;BME280;2902;42.130;24.732;2023-04-26T12:48:22;98447.28;;;19.90;55.29
5755;BME280;2902;42.130;24.732;2023-04-26T12:50:49;98446.09;;;20.06;56.87
5755;BME280;2902;42.130;24.732;2023-04-26T12:53:16;98444.59;;;20.52;58.84
5755;BME280;2902;42.130;24.732;2023-04-26T12:55:43;98462.19;;;20.73;51.05
5755;BME280;2902;42.130;24.732;2023-04-26T12:58:11;98446.84;;;20.97;54.57
5755;BME280;2902;42.130;24.732;2023-04-26T13:00:38;98450.78;;;21.28;54.03
5755;BME280;2902;42.130;24.732;2023-04-26T13:03:04;98436.69;;;21.50;54.09
5755;BME280;2902;42.130;24.732;2023-04-26T13:05:31;98451.09;;;21.82;52.96
5755;BME280;2902;42.130;24.732;2023-04-26T13:07:58;98460.50;;;22.03;49.33
5755;BME280;2902;42.130;24.732;2023-04-26T13:10:26;98455.66;;;22.19;49.31
5755;BME280;2902;42.130;24.732;2023-04-26T13:12:53;98459.34;;;21.72;43.06
5755;BME280;2902;42.130;24.732;2023-04-26T13:15:21;98470.00;;;21.22;44.03